Time;durP1;ratioP1;P1;durP2;ratioP2;P2;SDS_P1;SDS_P2;PMS_P1;PMS_P2;Temp;Humidity;BMP_temperature;BMP_pressure;BME280_temperature;BME280_humidity;BME280_pressure;Samples;Min_cycle;Max_cycle;Signal;HPM_P1;HPM_P2
2022/02/07 00:00:02;;;;;;;2.78;1.00;;;;;;;5.04;81.15;99187.88;5076121;28;20064;-64
2022/02/07 00:02:49;;;;;;;2.15;0.93;;;;;;;4.95;81.31;99173.19;5075418;28;20056;-64
2022/02/07 00:05:22;;;;;;;4.22;1.20;;;;;;;4.89;81.67;99166.94;5075031;28;20078;-64
2022/02/07 00:07:53;;;;;;;3.67;0.73;;;;;;;4.79;80.48;99184.56;5055456;28;20053;-64
2022/02/07 00:10:23;;;;;;;3.10;0.98;;;;;;;4.78;81.67;99182.91;5074638;28;20045;-63
2022/02/07 00:12:51;;;;;;;4.88;1.02;;;;;;;4.68;80.68;99186.72;5075383;28;20044;-63
2022/02/07 00:15:19;;;;;;;4.07;0.90;;;;;;;4.61;81.25;99199.25;5076011;28;20056;-63
2022/02/07 00:17:49;;;;;;;4.13;1.23;;;;;;;4.48;81.22;99209.97;5074535;28;20056;-63
2022/02/07 00:20:18;;;;;;;;;;;;;;;4.37;80.25;99227.84;5075354;28;20053;-63
2022/02/07 00:22:47;;;;;;;2.73;0.93;;;;;;;4.25;81.45;99231.06;5075088;28;19927;-63
2022/02/07 00:25:20;;;;;;;4.57;0.95;;;;;;;4.19;81.57;99237.00;5075145;28;20056;-64
2022/02/07 00:27:48;;;;;;;7.78;1.60;;;;;;;4.12;81.49;99259.44;5074694;28;20071;-63
2022/02/07 00:30:18;;;;;;;5.78;1.20;;;;;;;4.03;82.00;99262.06;5075532;28;20059;-63
2022/02/07 00:32:45;;;;;;;;;;;;;;;3.92;80.63;99271.59;5081301;28;20051;-63
2022/02/07 00:35:16;;;;;;;5.55;1.83;;;;;;;3.83;81.32;99262.38;5085757;28;20370;-63
2022/02/07 00:37:45;;;;;;;4.55;1.52;;;;;;;3.75;80.37;99279.56;5055022;28;20053;-63
2022/02/07 00:43:02;;;;;;;5.20;1.25;;;;;;;3.70;82.15;99307.22;5074508;28;20056;-63
2022/02/07 00:45:48;;;;;;;5.30;1.13;;;;;;;3.71;82.30;99303.31;5074510;28;20048;-63
2022/02/07 00:48:16;;;;;;;6.13;1.40;;;;;;;3.67;81.85;99314.09;5089089;28;20048;-62
2022/02/07 00:50:46;;;;;;;4.00;1.15;;;;;;;3.72;82.35;99330.56;5075507;28;20556;-63
2022/02/07 00:53:14;;;;;;;7.72;1.63;;;;;;;3.69;82.46;99339.41;5082680;28;20060;-63
2022/02/07 00:55:41;;;;;;;4.75;1.52;;;;;;;3.67;82.50;99352.66;5074033;28;20528;-63
2022/02/07 00:58:12;;;;;;;7.22;1.35;;;;;;;3.71;83.02;99359.22;5074614;28;20351;-63
2022/02/07 01:00:41;;;;;;;7.10;1.30;;;;;;;3.66;82.24;99367.56;5074132;28;20433;-63
2022/02/07 01:03:09;;;;;;;6.45;1.35;;;;;;;3.66;82.34;99370.31;5074377;28;20071;-63
2022/02/07 01:05:37;;;;;;;6.47;1.70;;;;;;;3.63;82.28;99379.97;5074078;28;20509;-63
2022/02/07 01:08:05;;;;;;;7.28;1.50;;;;;;;3.63;82.54;99391.00;5074211;28;20059;-63
2022/02/07 01:10:50;;;;;;;7.95;1.58;;;;;;;3.53;82.50;99409.56;5087689;28;20067;-63
2022/02/07 01:13:29;;;;;;;4.45;1.10;;;;;;;3.54;82.86;99409.25;5074235;28;20485;-63
2022/02/07 01:15:58;;;;;;;3.85;1.38;;;;;;;3.60;82.94;99424.59;5074475;28;20402;-63
2022/02/07 01:46:17;;;;;;;5.10;1.50;;;;;;;4.61;84.09;99546.75;5079638;28;20413;-63
2022/02/07 01:51:55;;;;;;;8.35;1.98;;;;;;;4.75;83.25;99555.94;5056569;28;20056;-63
2022/02/07 01:54:32;;;;;;;10.93;2.00;;;;;;;4.79;83.10;99572.72;5077911;28;20068;-63
2022/02/07 01:57:00;;;;;;;9.52;1.70;;;;;;;4.86;83.43;99593.28;5073294;28;20064;-64
2022/02/07 01:59:28;;;;;;;9.27;1.90;;;;;;;4.92;81.73;99593.22;5073165;28;20398;-63
2022/02/07 02:01:56;;;;;;;9.73;2.13;;;;;;;4.91;81.99;99595.13;5073469;28;20430;-64
2022/02/07 02:04:25;;;;;;;11.05;2.40;;;;;;;4.85;81.49;99596.34;5073157;28;20044;-63
2022/02/07 02:06:56;;;;;;;12.02;1.80;;;;;;;4.75;81.49;99602.84;5089234;28;20056;-64
2022/02/07 02:09:26;;;;;;;8.35;2.05;;;;;;;4.59;82.01;99620.69;5080945;28;20059;-65
2022/02/07 02:11:53;;;;;;;;;;;;;;;4.52;81.15;99617.50;5073220;28;20056;-64
2022/02/07 02:17:36;;;;;;;10.00;1.52;;;;;;;4.37;81.95;99635.84;5071809;28;20048;-64
2022/02/07 02:37:14;;;;;;;9.43;2.13;;;;;;;4.53;81.77;99688.06;5085662;28;20044;-64
2022/02/07 02:45:35;;;;;;;8.07;2.08;;;;;;;4.61;81.38;99728.78;5078506;28;20055;-64
2022/02/07 02:48:14;;;;;;;13.30;2.40;;;;;;;4.57;80.63;99736.00;5072212;28;20068;-64
2022/02/07 02:50:43;;;;;;;9.77;2.20;;;;;;;4.56;79.87;99737.13;5080642;28;20044;-64
2022/02/07 02:53:12;;;;;;;10.02;1.88;;;;;;;4.58;79.76;99741.22;5092641;28;20481;-64
2022/02/07 02:55:46;;;;;;;7.95;2.08;;;;;;;4.67;79.94;99760.72;5092167;28;20125;-64
2022/02/07 02:58:16;;;;;;;8.57;2.20;;;;;;;4.79;79.81;99758.38;5074674;28;20059;-64
2022/02/07 03:00:45;;;;;;;12.73;2.20;;;;;;;4.85;80.31;99784.81;5071972;28;20055;-64
2022/02/07 03:03:12;;;;;;;9.35;2.03;;;;;;;4.75;78.51;99795.94;5072490;28;20486;-64
2022/02/07 03:05:43;;;;;;;8.93;2.47;;;;;;;4.75;78.81;99801.47;5071696;28;20049;-64
2022/02/07 03:08:11;;;;;;;8.43;2.28;;;;;;;4.82;78.27;99796.41;5071854;28;20052;-64
2022/02/07 03:10:47;;;;;;;9.02;1.80;;;;;;;4.84;78.46;99807.16;5070929;28;20052;-65
2022/02/07 03:13:17;;;;;;;15.13;2.55;;;;;;;4.83;78.46;99811.84;5057239;28;20049;-64
2022/02/07 03:18:38;;;;;;;8.38;1.77;;;;;;;4.86;79.17;99838.03;5059969;28;20067;-64
2022/02/07 03:21:06;;;;;;;9.48;1.92;;;;;;;4.86;78.92;99841.63;5085896;28;20055;-64
2022/02/07 03:23:33;;;;;;;10.02;2.17;;;;;;;4.86;78.38;99833.34;5092279;28;20048;-64
2022/02/07 03:26:01;;;;;;;11.40;2.63;;;;;;;4.93;78.18;99844.03;5084057;28;20060;-64
2022/02/07 03:28:30;;;;;;;10.25;2.63;;;;;;;4.91;78.06;99850.94;5071879;28;20052;-64
2022/02/07 03:30:57;;;;;;;13.80;2.13;;;;;;;4.97;78.25;99861.63;5072164;28;20131;-63
2022/02/07 03:33:25;;;;;;;12.20;1.95;;;;;;;4.93;78.20;99868.84;5072106;28;20063;-63
2022/02/07 03:35:52;;;;;;;8.45;2.08;;;;;;;4.99;78.28;99866.88;5071899;28;20049;-63
2022/02/07 03:38:19;;;;;;;9.73;2.83;;;;;;;5.07;77.98;99874.53;5071541;28;20056;-63
2022/02/07 03:40:47;;;;;;;8.52;2.33;;;;;;;5.10;78.04;99887.72;5072055;28;20053;-64
2022/02/07 03:43:14;;;;;;;11.20;2.58;;;;;;;5.12;78.01;99895.72;5071817;28;20056;-64
2022/02/07 03:45:43;;;;;;;8.90;2.42;;;;;;;5.18;78.78;99895.38;5071331;28;20052;-64
2022/02/07 03:48:10;;;;;;;12.07;2.67;;;;;;;5.08;77.16;99912.03;5071915;28;20057;-64
2022/02/07 03:50:37;;;;;;;11.07;2.40;;;;;;;4.99;74.81;99911.03;5071631;28;20056;-64
2022/02/07 03:53:05;;;;;;;14.95;3.38;;;;;;;5.13;78.16;99916.72;5072109;28;20053;-64
2022/02/07 03:55:32;;;;;;;12.35;2.38;;;;;;;5.13;77.02;99939.59;5070885;28;20048;-64
2022/02/07 03:58:00;;;;;;;11.95;2.97;;;;;;;5.21;78.45;99935.41;5071830;28;20493;-63
2022/02/07 04:00:28;;;;;;;11.40;2.35;;;;;;;5.26;77.96;99947.19;5071463;28;20067;-63
2022/02/07 04:02:59;;;;;;;11.68;2.78;;;;;;;5.26;77.56;99951.91;5071329;28;20064;-63
2022/02/07 04:05:41;;;;;;;9.82;2.38;;;;;;;5.30;77.98;99955.72;5086934;28;20485;-63
2022/02/07 04:08:10;;;;;;;10.63;2.45;;;;;;;5.37;78.18;99960.91;5091913;28;20055;-63
2022/02/07 04:10:48;;;;;;;15.03;2.87;;;;;;;5.27;78.03;99967.34;5051256;28;20049;-63
2022/02/07 04:13:17;;;;;;;10.57;2.78;;;;;;;5.28;78.28;99972.56;5064902;28;20063;-62
2022/02/07 04:15:44;;;;;;;12.07;2.95;;;;;;;5.28;77.81;99980.88;5071141;28;20044;-63
2022/02/07 04:18:15;;;;;;;13.35;3.08;;;;;;;5.18;77.58;99983.72;5071480;28;20393;-63
2022/02/07 04:20:42;;;;;;;14.55;3.17;;;;;;;5.22;77.62;99998.59;5071033;28;20170;-63
2022/02/07 04:23:10;;;;;;;10.80;2.60;;;;;;;5.29;78.69;100003.75;5073656;28;20057;-63
2022/02/07 04:25:37;;;;;;;16.20;3.33;;;;;;;5.13;75.36;100010.56;5074588;28;20110;-63
2022/02/07 04:28:06;;;;;;;10.50;3.35;;;;;;;5.10;76.24;100017.47;5074771;28;20056;-63
2022/02/07 04:30:33;;;;;;;13.68;3.67;;;;;;;5.12;77.62;100018.00;5074937;28;20064;-63
2022/02/07 04:33:00;;;;;;;11.85;2.70;;;;;;;5.24;78.62;100023.16;5075214;28;20052;-63
2022/02/07 04:35:29;;;;;;;11.00;2.90;;;;;;;5.20;78.29;100036.72;5068049;28;20048;-63
2022/02/07 04:37:57;;;;;;;9.23;2.17;;;;;;;5.15;78.03;100047.81;5054906;28;20056;-63
2022/02/07 04:40:24;;;;;;;13.43;2.90;;;;;;;5.12;76.95;100050.31;5083392;28;20169;-63
2022/02/07 04:42:52;;;;;;;11.35;2.83;;;;;;;5.18;78.16;100055.50;5093877;28;20075;-63
2022/02/07 04:45:34;;;;;;;8.07;2.63;;;;;;;5.17;77.81;100066.84;5074821;28;20051;-63
2022/02/07 04:48:39;;;;;;;10.77;2.72;;;;;;;5.19;77.30;100070.97;5074654;28;20059;-63
2022/02/07 04:51:40;;;;;;;9.10;2.70;;;;;;;5.25;78.82;100088.31;5074503;28;20055;-63
2022/02/07 04:54:17;;;;;;;11.80;2.78;;;;;;;5.23;78.50;100085.84;5074534;28;20044;-63
2022/02/07 04:59:50;;;;;;;10.73;2.33;;;;;;;5.20;78.80;100091.94;5052163;28;19921;-63
2022/02/07 05:02:25;;;;;;;14.20;2.80;;;;;;;5.16;78.08;100104.66;5056832;28;20052;-63
2022/02/07 05:05:00;;;;;;;10.15;2.58;;;;;;;5.14;78.64;100125.38;5086821;28;20056;-63
2022/02/07 05:15:46;;;;;;;8.27;2.90;;;;;;;5.02;77.59;100145.91;5083075;28;20071;-63
2022/02/07 05:18:14;;;;;;;8.00;2.53;;;;;;;5.06;77.84;100158.03;5074001;28;20053;-63
2022/02/07 05:20:41;;;;;;;12.85;3.22;;;;;;;5.11;79.11;100173.72;5072928;28;20045;-64
2022/02/07 05:23:10;;;;;;;11.07;2.85;;;;;;;5.19;78.94;100186.94;5074115;28;20053;-63
2022/02/07 05:25:38;;;;;;;13.37;3.43;;;;;;;5.11;78.98;100184.75;5073663;28;20056;-63
2022/02/07 05:28:06;;;;;;;9.85;2.78;;;;;;;5.13;79.22;100195.53;5082631;28;20084;-63
2022/02/07 05:30:33;;;;;;;11.90;3.15;;;;;;;5.24;79.84;100199.88;5073890;28;20053;-63
2022/02/07 05:33:00;;;;;;;14.18;3.13;;;;;;;5.21;79.77;100208.75;5073433;28;20056;-63
2022/02/07 05:35:27;;;;;;;9.48;2.92;;;;;;;5.18;79.47;100215.63;5065988;28;20053;-63
2022/02/07 05:37:55;;;;;;;11.13;2.75;;;;;;;5.19;78.91;100217.31;5064804;28;20413;-63
2022/02/07 05:40:30;;;;;;;13.95;3.03;;;;;;;5.27;79.74;100215.84;5073797;28;20049;-63
2022/02/07 05:43:00;;;;;;;13.77;3.30;;;;;;;5.16;78.81;100223.38;5085144;28;21103;-63
2022/02/07 05:45:27;;;;;;;8.63;3.00;;;;;;;5.08;77.84;100227.56;5073637;28;20048;-63
2022/02/07 05:47:55;;;;;;;11.60;2.60;;;;;;;5.18;79.33;100232.19;5072678;28;20053;-63
2022/02/07 05:50:22;;;;;;;11.77;3.10;;;;;;;5.27;79.41;100232.41;5073551;28;20108;-63
2022/02/07 05:52:50;;;;;;;13.13;2.83;;;;;;;5.20;79.32;100242.97;5072730;28;20056;-63
2022/02/07 05:55:17;;;;;;;11.57;2.88;;;;;;;5.15;79.35;100246.59;5072876;28;20061;-63
2022/02/07 05:57:46;;;;;;;10.35;3.10;;;;;;;5.32;79.66;100253.69;5071843;28;20504;-63
2022/02/07 06:00:14;;;;;;;12.18;2.88;;;;;;;5.29;78.89;100264.19;5073341;28;20044;-63
2022/02/07 06:02:41;;;;;;;16.00;3.30;;;;;;;5.18;78.89;100270.03;5071688;28;20134;-65
2022/02/07 06:05:09;;;;;;;13.93;3.08;;;;;;;5.20;79.96;100274.16;5072585;28;20397;-64
2022/02/07 06:07:39;;;;;;;16.60;3.13;;;;;;;5.17;79.92;100283.03;5071893;28;20048;-63
2022/02/07 06:10:07;;;;;;;;;;;;;;;5.23;78.70;100292.13;5073145;28;20060;-63
2022/02/07 06:12:35;;;;;;;10.45;3.13;;;;;;;5.25;80.73;100300.94;5075495;28;19920;-63
2022/02/07 06:15:05;;;;;;;12.23;3.38;;;;;;;5.11;79.47;100306.25;5071579;28;20048;-63
2022/02/07 06:17:32;;;;;;;;;;;;;;;5.11;78.58;100311.75;5057245;28;20047;-63
2022/02/07 06:20:02;;;;;;;10.20;3.35;;;;;;;5.09;80.35;100322.25;5068787;28;19936;-63
2022/02/07 06:22:29;;;;;;;;;;;;;;;5.09;79.58;100328.59;5067904;28;20049;-63
2022/02/07 06:24:57;;;;;;;14.30;3.20;;;;;;;5.07;80.06;100341.84;5066738;28;19921;-63
2022/02/07 06:27:25;;;;;;;13.13;3.05;;;;;;;4.63;81.02;100350.78;5057331;28;20044;-64
2022/02/07 06:29:52;;;;;;;11.05;2.80;;;;;;;4.80;82.70;100361.50;5072512;28;20040;-62
2022/02/07 06:32:21;;;;;;;9.07;3.00;;;;;;;5.09;81.26;100364.50;5072426;28;20071;-62
2022/02/07 06:34:48;;;;;;;18.00;3.70;;;;;;;5.15;80.42;100365.31;5072569;28;20045;-62
2022/02/07 06:37:15;;;;;;;16.23;3.53;;;;;;;5.17;80.45;100365.84;5073999;28;20409;-62
2022/02/07 06:39:43;;;;;;;13.52;3.50;;;;;;;5.20;80.39;100376.31;5072430;28;20060;-62
2022/02/07 06:42:10;;;;;;;12.43;4.15;;;;;;;5.31;81.13;100385.41;5071483;28;20045;-62
2022/02/07 06:44:37;;;;;;;13.15;3.38;;;;;;;5.27;81.13;100398.97;5068689;28;20048;-63
2022/02/07 06:47:06;;;;;;;13.90;3.50;;;;;;;5.26;80.43;100393.72;5082189;28;20044;-62
2022/02/07 06:49:34;;;;;;;12.25;3.33;;;;;;;5.11;78.76;100402.88;5072563;28;20052;-62
2022/02/07 06:52:02;;;;;;;14.60;3.75;;;;;;;5.18;79.51;100406.16;5072082;28;20048;-62
2022/02/07 06:54:29;;;;;;;15.80;3.97;;;;;;;5.19;80.16;100418.88;5071359;28;20052;-62
2022/02/07 06:56:57;;;;;;;11.82;3.45;;;;;;;5.12;79.01;100421.06;5071526;28;20515;-62
2022/02/07 06:59:25;;;;;;;13.32;3.55;;;;;;;5.23;80.42;100428.25;5071544;28;20053;-62
2022/02/07 07:01:52;;;;;;;12.95;4.07;;;;;;;5.34;80.70;100448.38;5071718;28;20041;-63
2022/02/07 07:04:21;;;;;;;13.98;3.58;;;;;;;5.33;80.00;100445.88;5071577;28;20437;-63
2022/02/07 07:06:49;;;;;;;17.15;4.30;;;;;;;5.38;80.26;100454.16;5088565;28;20051;-63
2022/02/07 07:09:17;;;;;;;12.63;3.38;;;;;;;5.36;80.28;100456.38;5077117;28;20055;-63
2022/02/07 07:11:44;;;;;;;15.75;3.90;;;;;;;5.33;80.37;100451.41;5072741;28;20057;-63
2022/02/07 07:14:17;;;;;;;16.85;4.00;;;;;;;5.34;79.68;100458.59;5071915;28;20056;-63
2022/02/07 07:16:53;;;;;;;12.48;3.65;;;;;;;5.35;80.12;100455.53;5071668;28;20064;-63
2022/02/07 07:19:21;;;;;;;13.40;3.50;;;;;;;5.15;77.71;100473.00;5072106;28;20064;-63
2022/02/07 07:21:49;;;;;;;16.20;3.70;;;;;;;5.29;79.27;100467.69;5070618;28;20166;-63
2022/02/07 07:24:17;;;;;;;14.75;3.50;;;;;;;5.44;79.78;100481.50;5071706;28;20060;-63
2022/02/07 07:26:45;;;;;;;12.60;3.80;;;;;;;5.43;79.21;100484.53;5078498;28;20055;-62
2022/02/07 07:29:17;;;;;;;14.27;3.83;;;;;;;5.51;79.66;100486.72;5070302;28;20072;-49
2022/02/07 07:31:49;;;;;;;14.93;4.00;;;;;;;5.13;79.86;100490.94;5056058;28;20044;-48
2022/02/07 07:34:16;;;;;;;14.90;4.45;;;;;;;5.07;78.80;100490.94;5070694;28;20440;-50
2022/02/07 07:36:44;;;;;;;13.00;3.97;;;;;;;4.99;78.80;100490.66;5070936;28;20048;-62
2022/02/07 07:39:13;;;;;;;19.50;4.13;;;;;;;5.53;79.54;100514.91;5071597;28;20551;-62
2022/02/07 07:41:41;;;;;;;15.85;3.78;;;;;;;5.73;78.95;100521.47;5064452;28;20413;-62
2022/02/07 07:44:10;;;;;;;10.82;3.22;;;;;;;5.73;78.62;100527.00;5071708;28;20144;-62
2022/02/07 07:46:38;;;;;;;14.73;4.05;;;;;;;5.82;78.39;100541.91;5061978;28;20059;-61
2022/02/07 07:49:10;;;;;;;14.45;3.40;;;;;;;5.93;78.01;100551.81;5069062;28;20067;-61
2022/02/07 07:51:44;;;;;;;17.02;4.30;;;;;;;5.87;77.86;100558.47;5069779;28;20067;-63
2022/02/07 07:54:20;;;;;;;14.43;3.85;;;;;;;5.90;78.44;100564.28;5069436;28;20056;-61
2022/02/07 08:02:25;;;;;;;16.00;3.17;;;;;;;6.15;79.16;100567.25;5077541;28;20071;-61
2022/02/07 08:04:54;;;;;;;22.67;4.05;;;;;;;6.26;77.68;100578.00;5072406;28;20044;-61
2022/02/07 08:07:29;;;;;;;15.88;4.00;;;;;;;6.28;76.85;100584.09;5074742;28;20052;-61
2022/02/07 08:10:26;;;;;;;15.75;3.33;;;;;;;6.29;76.88;100590.44;5075076;28;20544;-62
2022/02/07 08:12:53;;;;;;;15.75;3.80;;;;;;;6.26;75.46;100599.31;5073754;28;20406;-62
2022/02/07 08:15:21;;;;;;;19.20;3.40;;;;;;;6.59;74.92;100606.06;5074195;28;20052;-62
2022/02/07 08:17:48;;;;;;;17.27;4.10;;;;;;;6.94;74.98;100617.22;5074395;28;20067;-62
2022/02/07 08:20:15;;;;;;;14.52;3.80;;;;;;;6.78;74.70;100628.38;5073019;28;20048;-62
2022/02/07 08:22:42;;;;;;;15.60;3.90;;;;;;;6.75;74.53;100628.97;5074136;28;20044;-61
2022/02/07 08:25:11;;;;;;;16.35;4.30;;;;;;;6.45;74.67;100629.94;5074422;28;20063;-61
2022/02/07 08:27:39;;;;;;;14.88;3.45;;;;;;;6.46;75.36;100626.06;5073647;28;20048;-62
2022/02/07 08:30:08;;;;;;;17.17;4.20;;;;;;;6.48;75.84;100638.50;5073871;28;20056;-62
2022/02/07 08:32:35;;;;;;;17.77;4.63;;;;;;;6.47;75.98;100639.63;5074412;28;20049;-62
2022/02/07 08:35:03;;;;;;;13.90;3.47;;;;;;;6.60;76.15;100642.88;5080832;28;20052;-61
2022/02/07 08:37:31;;;;;;;15.25;3.22;;;;;;;6.77;75.20;100645.28;5074519;28;20059;-61
2022/02/07 08:39:58;;;;;;;12.13;3.83;;;;;;;6.92;75.91;100664.59;5074103;28;20059;-61
2022/02/07 08:42:27;;;;;;;17.35;3.95;;;;;;;7.12;76.73;100663.66;5067351;28;20053;-61
2022/02/07 08:44:54;;;;;;;13.20;3.20;;;;;;;7.24;75.53;100666.88;5066587;28;20409;-62
2022/02/07 08:47:22;;;;;;;16.80;3.63;;;;;;;7.32;75.77;100668.22;5072489;28;20053;-62
2022/02/07 08:49:49;;;;;;;15.93;3.28;;;;;;;7.26;75.57;100683.22;5073621;28;20059;-62
2022/02/07 08:52:17;;;;;;;11.68;3.17;;;;;;;7.18;75.80;100694.91;5068836;28;20057;-62
2022/02/07 08:54:45;;;;;;;16.98;3.70;;;;;;;7.34;77.22;100703.97;5072546;28;20424;-62
2022/02/07 08:57:23;;;;;;;13.70;3.35;;;;;;;7.21;76.25;100725.63;5073891;28;20056;-61
2022/02/07 09:00:08;;;;;;;15.05;3.50;;;;;;;7.25;76.70;100732.25;5068940;28;20056;-61
2022/02/07 09:03:05;;;;;;;14.05;3.42;;;;;;;7.13;74.89;100739.25;5065654;28;20067;-61
2022/02/07 09:05:47;;;;;;;11.25;2.90;;;;;;;7.08;74.50;100746.47;5074145;28;20060;-62
2022/02/07 09:08:39;;;;;;;11.27;2.60;;;;;;;7.27;75.34;100748.63;5069388;28;20040;-61
2022/02/07 09:11:07;;;;;;;13.63;3.10;;;;;;;7.23;75.36;100741.97;5068727;28;20055;-61
2022/02/07 09:13:38;;;;;;;15.10;3.08;;;;;;;7.36;74.21;100751.59;5071183;28;20048;-61
2022/02/07 09:16:29;;;;;;;11.55;2.78;;;;;;;7.54;73.52;100770.34;5058589;28;20061;-61
2022/02/07 09:18:58;;;;;;;10.63;2.50;;;;;;;7.75;73.66;100759.94;5071256;28;20049;-61
2022/02/07 09:21:26;;;;;;;10.90;2.65;;;;;;;7.83;73.50;100761.25;5073495;28;20048;-61
2022/02/07 09:23:53;;;;;;;9.25;3.00;;;;;;;7.86;73.25;100771.78;5072524;28;20056;-62
2022/02/07 09:26:21;;;;;;;10.00;2.53;;;;;;;7.90;72.66;100757.06;5067118;28;20049;-61
2022/02/07 09:28:48;;;;;;;10.40;2.55;;;;;;;8.01;72.68;100755.00;5073365;28;20044;-62
2022/02/07 09:31:18;;;;;;;10.52;3.40;;;;;;;8.30;72.74;100762.53;5068798;28;20056;-62
2022/02/07 09:33:45;;;;;;;11.18;3.60;;;;;;;8.12;70.76;100776.00;5073949;28;20055;-62
2022/02/07 09:36:14;;;;;;;10.82;2.90;;;;;;;8.38;72.63;100783.25;5072398;28;20052;-63
2022/02/07 09:38:43;;;;;;;11.23;2.78;;;;;;;8.49;72.19;100782.91;5073523;28;20481;-62
2022/02/07 09:41:12;;;;;;;11.05;2.95;;;;;;;8.79;71.94;100794.00;5079461;28;20060;-62
2022/02/07 09:43:46;;;;;;;11.75;3.05;;;;;;;8.83;69.99;100798.66;5074010;28;20049;-63
2022/02/07 09:46:20;;;;;;;13.18;3.22;;;;;;;8.79;69.75;100807.88;5072368;28;20408;-63
2022/02/07 09:48:52;;;;;;;13.73;3.72;;;;;;;8.69;71.12;100828.25;5072965;28;20497;-63
2022/02/07 09:51:20;;;;;;;11.98;3.08;;;;;;;8.69;70.65;100828.25;5078673;28;20051;-63
2022/02/07 09:53:48;;;;;;;15.00;3.60;;;;;;;9.07;70.48;100839.50;5075276;28;20056;-63
2022/02/07 09:56:17;;;;;;;16.00;3.30;;;;;;;9.50;68.60;100853.47;5072005;28;20055;-63
2022/02/07 09:58:49;;;;;;;12.13;2.88;;;;;;;9.92;67.60;100854.56;5069488;28;20052;-63
2022/02/07 10:01:25;;;;;;;15.45;3.60;;;;;;;10.61;66.45;100862.41;5070460;28;20052;-60
2022/02/07 10:03:59;;;;;;;17.63;4.30;;;;;;;13.32;61.15;100856.25;5071899;28;20477;-61
2022/02/07 10:06:37;;;;;;;14.85;3.40;;;;;;;14.03;58.14;100858.06;5061265;28;20044;-61
2022/02/07 10:12:04;;;;;;;12.95;3.50;;;;;;;12.87;58.33;100884.31;5071572;28;20052;-61
2022/02/07 10:14:39;;;;;;;19.88;4.40;;;;;;;12.93;58.70;100880.22;5074140;28;20422;-61
2022/02/07 10:17:25;;;;;;;13.00;3.60;;;;;;;17.58;49.69;100877.84;5077621;28;20059;-61
2022/02/07 10:20:17;;;;;;;9.38;3.60;;;;;;;19.18;48.15;100885.84;5052348;28;20049;-61
2022/02/07 10:34:26;;;;;;;10.63;3.35;;;;;;;18.22;49.48;100886.72;5066223;28;20049;-61
2022/02/07 10:39:53;;;;;;;18.92;4.07;;;;;;;13.51;56.67;100955.91;5052475;28;20057;-60
2022/02/07 10:42:43;;;;;;;14.35;4.60;;;;;;;12.54;56.33;100962.81;5071252;28;20071;-60
2022/02/07 10:45:13;;;;;;;13.43;4.07;;;;;;;11.90;59.25;100959.22;5071256;28;20048;-60
2022/02/07 10:47:45;;;;;;;14.60;4.43;;;;;;;11.55;59.31;100968.00;5071678;28;20071;-63
2022/02/07 10:50:19;;;;;;;13.98;3.85;;;;;;;10.91;61.03;100978.91;5070107;28;20044;-61
2022/02/07 10:52:50;;;;;;;22.90;5.13;;;;;;;10.80;62.07;100990.53;5071856;28;20079;-61
2022/02/07 10:55:25;;;;;;;16.67;3.92;;;;;;;10.89;63.62;100975.59;5070356;28;20123;-61
2022/02/07 10:57:55;;;;;;;14.27;3.97;;;;;;;11.13;63.94;100963.50;5069497;28;20169;-61
2022/02/07 11:00:30;;;;;;;18.25;4.47;;;;;;;10.82;63.21;100975.16;5071564;28;20044;-61
2022/02/07 11:03:05;;;;;;;18.50;4.47;;;;;;;10.66;64.29;100979.31;5071266;28;20524;-61
2022/02/07 11:05:39;;;;;;;12.95;4.10;;;;;;;10.65;64.73;100986.84;5072959;28;20041;-61
2022/02/07 11:08:26;;;;;;;13.77;4.10;;;;;;;10.52;63.25;100985.66;5071262;28;20052;-61
2022/02/07 11:16:40;;;;;;;13.85;4.10;;;;;;;11.37;61.19;100992.03;5063050;28;20048;-60
2022/02/07 11:19:21;;;;;;;16.42;3.63;;;;;;;11.05;60.29;101001.25;5072119;28;20049;-60
2022/02/07 11:22:13;;;;;;;14.77;3.65;;;;;;;13.42;55.60;100997.84;5069946;28;20075;-60
2022/02/07 11:25:02;;;;;;;16.55;4.25;;;;;;;12.04;58.46;100995.53;5070408;28;20052;-60
2022/02/07 11:27:40;;;;;;;12.03;3.57;;;;;;;13.02;58.62;100997.75;5069975;28;20409;-60
2022/02/07 11:30:10;;;;;;;15.57;3.20;;;;;;;11.90;55.58;101003.88;5070434;28;20481;-61
2022/02/07 11:32:58;;;;;;;16.60;3.70;;;;;;;11.65;61.15;101005.19;5070336;28;20052;-61
2022/02/07 11:35:28;;;;;;;14.27;3.38;;;;;;;11.20;60.85;101005.75;5067734;28;20064;-61
2022/02/07 11:38:13;;;;;;;15.73;4.90;;;;;;;10.69;57.17;101012.97;5068526;28;20049;-61
2022/02/07 11:40:44;;;;;;;12.02;2.95;;;;;;;10.70;62.78;101013.81;5068143;28;20497;-61
2022/02/07 11:43:14;;;;;;;13.45;3.60;;;;;;;10.75;62.81;101017.34;5070275;28;20044;-61
2022/02/07 11:45:53;;;;;;;11.43;3.88;;;;;;;11.50;61.31;100998.75;5067772;28;20052;-61
2022/02/07 11:48:33;;;;;;;12.13;3.80;;;;;;;11.64;60.95;101007.16;5071293;28;20056;-61
2022/02/07 11:51:01;;;;;;;;;;;;;;;12.49;55.28;101002.03;5065269;28;20413;-61
2022/02/07 11:53:34;;;;;;;11.43;3.65;;;;;;;12.46;58.91;101008.28;5070944;28;19920;-61
2022/02/07 11:56:15;;;;;;;14.95;3.35;;;;;;;13.20;58.48;101009.84;5069036;28;20052;-61
2022/02/07 11:59:15;;;;;;;16.23;3.95;;;;;;;15.28;51.44;101017.16;5054024;28;20056;-61
2022/02/07 12:01:58;;;;;;;17.75;4.32;;;;;;;13.38;53.27;101014.44;5069210;28;20500;-61
2022/02/07 12:04:31;;;;;;;13.43;3.78;;;;;;;13.54;56.46;101020.47;5055144;28;20055;-61
2022/02/07 12:07:29;;;;;;;12.23;4.47;;;;;;;15.98;44.86;101011.34;5062627;28;20044;-61
2022/02/07 12:10:25;;;;;;;13.35;3.88;;;;;;;17.53;44.64;101015.28;5067133;28;20061;-61
2022/02/07 12:12:57;;;;;;;10.73;2.80;;;;;;;15.99;49.55;101007.38;5064512;28;20068;-62
2022/02/07 12:15:32;;;;;;;11.50;3.42;;;;;;;14.83;51.56;101014.75;5053592;28;20064;-61
2022/02/07 12:18:02;;;;;;;14.63;3.45;;;;;;;14.07;53.87;101018.72;5070235;28;20059;-61
2022/02/07 12:20:37;;;;;;;15.00;4.05;;;;;;;14.06;55.80;101011.44;5069853;28;20474;-61
2022/02/07 12:23:08;;;;;;;13.55;5.43;;;;;;;14.69;50.77;101028.09;5063305;28;20071;-61
2022/02/07 12:25:48;;;;;;;11.82;4.82;;;;;;;18.41;47.92;101005.34;5056338;28;20056;-61
2022/02/07 12:28:27;;;;;;;10.38;4.63;;;;;;;19.97;41.92;101011.41;5070563;28;20453;-61
2022/02/07 12:31:09;;;;;;;10.25;2.75;;;;;;;20.30;42.66;101001.69;5063291;28;20457;-50
2022/02/07 12:33:39;;;;;;;10.63;3.95;;;;;;;17.21;38.97;101015.75;5066667;28;20056;-53
2022/02/07 12:36:07;;;;;;;12.65;3.42;;;;;;;15.61;44.95;101010.97;5050555;28;20053;-51
2022/02/07 12:38:37;;;;;;;10.05;3.10;;;;;;;14.60;48.45;101023.31;5050497;28;20049;-54
2022/02/07 12:41:07;;;;;;;10.50;2.88;;;;;;;13.75;52.55;101042.28;5055909;28;20045;-50
2022/02/07 12:43:39;;;;;;;9.73;3.15;;;;;;;12.90;54.60;101026.25;5054606;28;20450;-49
2022/02/07 12:46:10;;;;;;;12.10;3.08;;;;;;;12.84;57.36;101040.69;5065167;28;22153;-52
2022/02/07 12:48:42;;;;;;;11.93;4.00;;;;;;;12.33;60.29;101032.31;5057782;28;20473;-62
2022/02/07 12:51:10;;;;;;;13.80;4.47;;;;;;;11.95;59.86;101054.88;5068460;28;20045;-62
2022/02/07 12:53:37;;;;;;;17.02;4.35;;;;;;;11.57;62.31;101051.41;5073329;28;20485;-61
2022/02/07 12:56:05;;;;;;;13.63;4.35;;;;;;;11.20;62.40;101055.09;5071332;28;20513;-62
2022/02/07 12:58:37;;;;;;;13.65;5.00;;;;;;;10.76;64.91;101062.75;5073626;28;20052;-62
2022/02/07 13:01:26;;;;;;;9.73;3.42;;;;;;;10.31;64.45;101074.22;5073625;28;20488;-62
2022/02/07 13:03:57;;;;;;;13.40;3.88;;;;;;;10.23;66.20;101074.03;5059938;28;20048;-62
2022/02/07 13:06:28;;;;;;;15.43;3.92;;;;;;;10.09;66.84;101071.94;5060769;28;20045;-62
2022/02/07 13:09:02;;;;;;;10.77;4.55;;;;;;;9.85;67.66;101076.66;5074181;28;20055;-62
2022/02/07 13:11:32;;;;;;;17.83;4.80;;;;;;;9.69;68.56;101090.75;5073730;28;20393;-62
2022/02/07 13:14:03;;;;;;;10.27;3.97;;;;;;;9.40;69.01;101098.25;5073546;28;20053;-62
2022/02/07 13:16:32;;;;;;;13.48;3.33;;;;;;;9.34;69.24;101094.69;5073347;28;20056;-62
2022/02/07 13:19:11;;;;;;;11.65;3.33;;;;;;;9.07;68.28;101095.16;5058505;28;20163;-62
2022/02/07 13:21:42;;;;;;;14.40;3.58;;;;;;;9.20;70.54;101099.22;5070252;28;20049;-62
2022/02/07 13:24:11;;;;;;;14.25;3.85;;;;;;;9.29;68.68;101103.91;5073861;28;20060;-62
2022/02/07 13:26:39;;;;;;;16.20;3.83;;;;;;;9.27;70.06;101096.97;5073129;28;20067;-62
2022/02/07 13:29:08;;;;;;;14.18;4.30;;;;;;;9.13;70.29;101085.66;5073684;28;20060;-62
2022/02/07 13:31:39;;;;;;;12.68;4.22;;;;;;;9.20;70.76;101088.97;5073400;28;20481;-62